Time;durP1;ratioP1;P1;durP2;ratioP2;P2;SDS_P1;SDS_P2;PMS_P1;PMS_P2;Temp;Humidity;BMP_temperature;BMP_pressure;BME280_temperature;BME280_humidity;BME280_pressure;Samples;Min_cycle;Max_cycle;Signal;HPM_P1;HPM_P2
2024/02/14 00:01:14;;;;;;;3.87;1.47;;;;;;;-145.69;62.25;52357.25;5113151;28;20205;-81
2024/02/14 00:03:41;;;;;;;2.53;1.40;;;;;;;-145.69;62.18;52371.13;5113180;28;20201;-82
2024/02/14 00:06:08;;;;;;;5.23;1.50;;;;;;;-145.69;62.70;52347.34;5113192;28;20682;-81
2024/02/14 00:08:34;;;;;;;8.43;1.60;;;;;;;-145.69;62.51;52386.97;5112913;28;20207;-81
2024/02/14 00:11:02;;;;;;;5.17;1.63;;;;;;;-145.69;62.54;52349.31;5112727;28;20262;-81
2024/02/14 00:13:28;;;;;;;5.33;1.80;;;;;;;-145.69;62.56;52341.41;5112981;28;20212;-81
2024/02/14 00:15:57;;;;;;;7.93;1.40;;;;;;;-145.69;62.27;52349.31;5112569;28;20216;-80
2024/02/14 00:18:23;;;;;;;2.57;1.40;;;;;;;-145.69;62.16;52396.84;5112939;27;20204;-81
2024/02/14 00:20:50;;;;;;;3.77;1.30;;;;;;;-145.69;62.08;52363.19;5113049;28;20197;-81
2024/02/14 00:23:16;;;;;;;4.70;1.37;;;;;;;-145.69;61.74;52355.28;5112225;28;20201;-81
2024/02/14 00:25:43;;;;;;;7.40;1.53;;;;;;;-145.69;61.43;52329.53;5112658;28;20773;-81
2024/02/14 00:28:10;;;;;;;4.80;1.60;;;;;;;-145.69;61.61;52335.47;5112668;28;20225;-81
2024/02/14 00:30:36;;;;;;;4.50;1.60;;;;;;;-145.69;61.14;52315.66;5112510;28;20192;-81
2024/02/14 00:33:04;;;;;;;2.00;1.20;;;;;;;-145.69;60.60;52339.44;5112445;28;20206;-81
2024/02/14 00:35:31;;;;;;;4.20;1.40;;;;;;;-145.69;60.09;52343.38;5113123;28;20228;-81
2024/02/14 00:37:57;;;;;;;2.47;1.50;;;;;;;-145.69;60.44;52321.59;5112656;28;20204;-81
2024/02/14 00:40:24;;;;;;;2.97;1.13;;;;;;;-145.69;59.61;52325.56;5116644;28;20675;-82
2024/02/14 00:42:50;;;;;;;3.30;1.17;;;;;;;-145.69;59.72;52341.41;5116869;28;20202;-80
2024/02/14 00:45:17;;;;;;;3.90;1.23;;;;;;;-145.69;59.99;52333.47;5116367;28;20673;-81
2024/02/14 00:47:43;;;;;;;4.40;1.47;;;;;;;-145.69;59.68;52343.38;5116665;28;20626;-81
2024/02/14 00:50:13;;;;;;;3.43;1.30;;;;;;;-145.69;59.86;52359.22;5116662;28;20236;-81
2024/02/14 00:52:40;;;;;;;4.50;1.30;;;;;;;-145.69;59.94;52341.41;5116778;28;20753;-81
2024/02/14 00:55:07;;;;;;;2.80;1.50;;;;;;;-145.69;58.71;52365.16;5116264;28;20201;-81
2024/02/14 00:57:33;;;;;;;1.80;0.90;;;;;;;-145.69;59.16;52321.59;5116463;27;20212;-81
2024/02/14 01:00:00;;;;;;;2.33;1.10;;;;;;;-145.69;59.10;52309.72;5116598;27;20205;-80
2024/02/14 01:02:27;;;;;;;6.87;1.40;;;;;;;-145.69;58.66;52371.13;5116157;28;20296;-80
2024/02/14 01:04:53;;;;;;;6.57;1.33;;;;;;;-145.69;59.13;52329.53;5116530;28;20202;-80
2024/02/14 01:07:21;;;;;;;4.70;1.27;;;;;;;-145.69;58.89;52339.44;5116329;28;20683;-81
2024/02/14 01:09:47;;;;;;;3.97;1.30;;;;;;;-145.69;59.06;52325.56;5115875;28;20197;-81
2024/02/14 01:12:14;;;;;;;1.50;1.20;;;;;;;-145.69;59.11;52329.53;5114385;28;20249;-81
2024/02/14 01:14:41;;;;;;;2.63;1.20;;;;;;;-145.69;58.76;52355.28;5116327;28;20193;-81
2024/02/14 01:17:08;;;;;;;2.70;1.20;;;;;;;-145.69;59.11;52305.75;5115900;27;20204;-81
2024/02/14 01:19:35;;;;;;;4.73;1.03;;;;;;;-145.69;59.21;52321.59;5115553;28;20199;-80
2024/02/14 01:22:02;;;;;;;3.63;1.27;;;;;;;-145.69;58.72;52329.53;5115503;28;20197;-81
2024/02/14 01:24:31;;;;;;;4.07;1.33;;;;;;;-145.69;58.48;52309.72;5116032;28;20288;-81
2024/02/14 01:26:57;;;;;;;6.00;1.50;;;;;;;-145.69;58.36;52341.41;5115572;28;20217;-81
2024/02/14 01:29:24;;;;;;;4.03;1.33;;;;;;;-145.69;58.63;52337.44;5116111;28;20587;-81
2024/02/14 01:31:51;;;;;;;1.87;1.00;;;;;;;-145.69;58.51;52313.69;5115747;28;20193;-81
2024/02/14 01:34:17;;;;;;;1.70;1.07;;;;;;;-145.69;58.35;52343.38;5115953;28;20197;-81
2024/02/14 01:36:44;;;;;;;3.23;1.13;;;;;;;-145.69;58.67;52327.53;5115961;27;20197;-81
2024/02/14 01:39:11;;;;;;;4.20;1.43;;;;;;;-145.69;58.28;52309.72;5115429;28;20202;-81
2024/02/14 01:41:39;;;;;;;4.83;1.40;;;;;;;-145.69;58.05;52309.72;5115383;28;20284;-82
2024/02/14 01:44:06;;;;;;;3.77;1.47;;;;;;;-145.69;58.43;52329.53;5115982;28;20613;-81
2024/02/14 01:46:33;;;;;;;3.43;1.10;;;;;;;-145.69;58.28;52309.72;5115895;27;20205;-82
2024/02/14 01:49:00;;;;;;;3.70;1.20;;;;;;;-145.69;58.29;52333.47;5115350;28;20290;-82
2024/02/14 01:51:26;;;;;;;6.47;1.30;;;;;;;-145.69;58.62;52321.59;5114673;28;20198;-82
2024/02/14 01:53:55;;;;;;;9.50;1.27;;;;;;;-145.69;58.30;52365.16;5115433;27;20201;-82
2024/02/14 01:56:21;;;;;;;1.87;1.07;;;;;;;-145.69;58.42;52309.72;5115403;27;20209;-82
2024/02/14 01:58:50;;;;;;;1.60;1.10;;;;;;;-145.69;58.05;52287.94;5115231;28;20228;-82
2024/02/14 02:01:17;;;;;;;3.27;1.20;;;;;;;-145.69;57.85;52323.59;5114909;28;20198;-82
2024/02/14 02:03:46;;;;;;;3.00;1.20;;;;;;;-145.69;57.91;52331.50;5115228;28;20288;-82
2024/02/14 02:06:13;;;;;;;6.67;1.70;;;;;;;-145.69;58.02;52319.63;5115437;28;20541;-82
2024/02/14 02:08:39;;;;;;;2.30;1.13;;;;;;;-145.69;57.73;52379.03;5114964;28;20229;-82
2024/02/14 02:11:06;;;;;;;3.43;1.40;;;;;;;-145.69;57.82;52333.47;5114911;28;20205;-82
2024/02/14 02:13:33;;;;;;;2.57;1.33;;;;;;;-145.69;57.71;52349.31;5114991;28;20193;-82
2024/02/14 02:16:04;;;;;;;4.57;1.20;;;;;;;-145.69;57.48;52317.66;5114362;28;20663;-82
2024/02/14 02:18:31;;;;;;;4.50;1.40;;;;;;;-145.69;57.48;52301.81;5114862;28;20223;-82
2024/02/14 02:20:58;;;;;;;1.87;1.00;;;;;;;-145.69;57.16;52341.41;5114638;27;20308;-81
2024/02/14 02:23:26;;;;;;;2.30;1.30;;;;;;;-145.69;57.05;52315.66;5114934;28;20211;-80
2024/02/14 02:25:52;;;;;;;2.83;1.30;;;;;;;-145.69;57.44;52305.75;5114459;28;20198;-82
2024/02/14 02:28:19;;;;;;;6.57;1.30;;;;;;;-145.69;58.18;52299.81;5114700;28;20221;-81
2024/02/14 02:30:46;;;;;;;3.10;1.30;;;;;;;-145.69;58.18;52323.59;5114406;28;20679;-82
2024/02/14 02:33:13;;;;;;;3.23;1.20;;;;;;;-145.69;58.21;52337.44;5114718;28;20235;-82
2024/02/14 02:35:44;;;;;;;1.97;1.17;;;;;;;-145.69;58.09;52353.28;5114907;28;20284;-81
2024/02/14 02:38:10;;;;;;;3.57;1.20;;;;;;;-145.69;57.19;52337.44;5114763;28;20208;-82
2024/02/14 02:40:38;;;;;;;2.90;1.20;;;;;;;-145.69;57.31;52329.53;5114730;28;20598;-81
2024/02/14 02:43:05;;;;;;;2.17;1.10;;;;;;;-145.69;56.81;52341.41;5114099;28;20201;-81
2024/02/14 02:45:32;;;;;;;2.13;1.30;;;;;;;-145.69;57.57;52347.34;5114406;28;20193;-81
2024/02/14 02:48:01;;;;;;;2.87;1.33;;;;;;;-145.69;56.92;52347.34;5113981;28;20225;-80
2024/02/14 02:50:27;;;;;;;1.27;1.07;;;;;;;-145.69;57.06;52353.28;5113671;28;20217;-82
2024/02/14 02:52:54;;;;;;;2.20;0.97;;;;;;;-145.69;57.07;52369.13;5114142;28;20201;-82
2024/02/14 02:55:21;;;;;;;1.77;1.20;;;;;;;-145.69;56.99;52341.41;5114600;28;20241;-82
2024/02/14 02:57:49;;;;;;;3.70;1.10;;;;;;;-145.69;56.94;52301.81;5113942;28;20202;-82
2024/02/14 03:00:16;;;;;;;1.70;0.87;;;;;;;-145.69;56.82;52349.31;5114238;28;20240;-81
2024/02/14 03:02:44;;;;;;;4.00;1.00;;;;;;;-145.69;57.12;52341.41;5113969;28;20197;-82
2024/02/14 03:05:17;;;;;;;2.50;1.20;;;;;;;-145.69;57.10;52305.75;5114001;28;20200;-81
2024/02/14 03:07:45;;;;;;;2.87;1.17;;;;;;;-145.69;57.26;52357.25;5113419;28;20245;-81
2024/02/14 03:10:12;;;;;;;2.20;1.13;;;;;;;-145.69;57.81;52347.34;5113728;28;20205;-81
2024/02/14 03:12:39;;;;;;;2.37;1.17;;;;;;;-145.69;58.12;52347.34;5113943;28;20197;-81
2024/02/14 03:15:10;;;;;;;3.50;1.30;;;;;;;-145.69;58.98;52329.53;5113829;28;20246;-81
2024/02/14 03:17:37;;;;;;;4.83;1.17;;;;;;;-145.69;58.91;52345.38;5113724;28;20193;-81
2024/02/14 03:20:07;;;;;;;3.80;1.20;;;;;;;-145.69;59.02;52377.06;5114045;28;20549;-82
2024/02/14 03:22:33;;;;;;;5.77;1.23;;;;;;;-145.69;59.26;52353.28;5113460;28;20787;-81
2024/02/14 03:25:00;;;;;;;2.97;1.10;;;;;;;-145.69;59.35;52317.66;5113261;28;20201;-81
2024/02/14 03:27:26;;;;;;;3.30;1.40;;;;;;;-145.69;59.57;52353.28;5113473;28;20201;-81
2024/02/14 03:29:55;;;;;;;1.40;1.10;;;;;;;-145.69;59.31;52365.16;5113259;28;20686;-82
2024/02/14 03:32:23;;;;;;;6.10;1.40;;;;;;;-145.69;58.96;52299.81;5113914;28;20198;-81
2024/02/14 03:34:49;;;;;;;3.80;1.10;;;;;;;-145.69;58.94;52353.28;5113674;28;20197;-81
2024/02/14 03:37:18;;;;;;;1.93;1.13;;;;;;;-145.69;58.86;52357.25;5113416;28;20207;-82
2024/02/14 03:39:45;;;;;;;4.30;1.00;;;;;;;-145.69;58.81;52345.38;5113774;28;20634;-81
2024/02/14 03:42:12;;;;;;;3.83;1.13;;;;;;;-145.69;58.65;52303.78;5113265;28;20209;-81
2024/02/14 03:44:39;;;;;;;3.67;1.10;;;;;;;-145.69;58.40;52333.47;5112812;28;20212;-81
2024/02/14 03:47:05;;;;;;;1.70;1.30;;;;;;;-145.69;58.76;52343.38;5113430;28;20220;-81
2024/02/14 03:49:34;;;;;;;3.97;1.23;;;;;;;-145.69;58.68;52317.66;5113081;28;20237;-81
2024/02/14 03:52:01;;;;;;;3.73;1.10;;;;;;;-145.69;58.63;52365.16;5113461;28;20201;-82
2024/02/14 03:54:28;;;;;;;1.33;1.10;;;;;;;-145.69;57.83;52363.19;5113288;28;20203;-81
2024/02/14 03:56:55;;;;;;;7.37;1.50;;;;;;;-145.69;57.40;52349.31;5112910;28;20200;-81
2024/02/14 03:59:24;;;;;;;4.00;1.50;;;;;;;-145.69;56.80;52347.34;5113434;28;20197;-81
2024/02/14 04:01:53;;;;;;;2.30;1.23;;;;;;;-145.69;57.47;52361.22;5112745;28;20255;-81
2024/02/14 04:04:19;;;;;;;3.03;1.00;;;;;;;-145.69;56.70;52333.47;5112913;28;20193;-81
2024/02/14 04:06:47;;;;;;;3.20;1.20;;;;;;;-145.69;56.41;52335.47;5113350;27;20213;-82
2024/02/14 04:09:14;;;;;;;2.77;1.10;;;;;;;-145.69;55.94;52337.44;5112363;27;20262;-82
2024/02/14 04:11:40;;;;;;;3.67;1.13;;;;;;;-145.69;55.20;52355.28;5112814;28;20210;-82
2024/02/14 04:14:07;;;;;;;2.77;1.20;;;;;;;-145.69;55.17;52337.44;5112605;28;20224;-82
2024/02/14 04:16:33;;;;;;;3.10;1.13;;;;;;;-145.69;55.42;52321.59;5112965;28;20208;-81
2024/02/14 04:19:00;;;;;;;3.10;1.00;;;;;;;-145.69;54.15;52329.53;5112488;28;20204;-82
2024/02/14 04:21:26;;;;;;;2.77;1.10;;;;;;;-145.69;53.28;52325.56;5113090;28;20204;-82
2024/02/14 04:23:54;;;;;;;1.20;1.10;;;;;;;-145.69;53.14;52297.84;5112948;28;20696;-82
2024/02/14 04:26:21;;;;;;;4.53;1.27;;;;;;;-145.69;51.98;52293.88;5113012;28;20193;-82
2024/02/14 04:28:48;;;;;;;4.80;1.17;;;;;;;-145.69;52.69;52351.31;5112574;28;20691;-82
2024/02/14 04:31:15;;;;;;;1.73;0.90;;;;;;;-145.69;53.64;52333.47;5112076;28;20201;-82
2024/02/14 04:33:42;;;;;;;1.93;1.07;;;;;;;-145.69;53.98;52327.53;5112745;28;20208;-82
2024/02/14 04:36:08;;;;;;;4.47;1.50;;;;;;;-145.69;54.05;52325.56;5112245;28;20193;-82
2024/02/14 04:38:35;;;;;;;4.63;1.87;;;;;;;-145.69;54.53;52329.53;5113007;28;20246;-82
2024/02/14 04:41:03;;;;;;;4.50;1.30;;;;;;;-145.69;55.39;52327.53;5112903;28;20198;-82
2024/02/14 04:43:29;;;;;;;5.00;1.43;;;;;;;-145.69;57.05;52327.53;5112926;28;20663;-82
2024/02/14 04:45:56;;;;;;;1.70;1.30;;;;;;;-145.69;56.94;52331.50;5112627;28;20236;-81
2024/02/14 04:48:22;;;;;;;5.07;1.00;;;;;;;-145.69;57.23;52349.31;5112364;28;20241;-82
2024/02/14 04:50:49;;;;;;;3.70;1.57;;;;;;;-145.69;56.75;52319.63;5112855;28;20665;-81
2024/02/14 04:53:17;;;;;;;3.03;1.27;;;;;;;-145.69;56.59;52333.47;5112454;28;20201;-81
2024/02/14 04:55:44;;;;;;;3.40;1.17;;;;;;;-145.69;56.69;52309.72;5112581;28;20278;-81
2024/02/14 04:58:11;;;;;;;1.90;1.10;;;;;;;-145.69;57.03;52311.69;5112732;28;20204;-81
2024/02/14 05:00:38;;;;;;;1.47;1.10;;;;;;;-145.69;56.72;52321.59;5112383;28;20193;-81
2024/02/14 05:03:05;;;;;;;2.50;1.40;;;;;;;-145.69;56.80;52341.41;5112452;28;20660;-81
2024/02/14 05:05:33;;;;;;;3.63;1.20;;;;;;;-145.69;58.16;52305.75;5112382;28;20197;-81
2024/02/14 05:08:00;;;;;;;2.80;1.23;;;;;;;-145.69;58.02;52315.66;5112802;28;20193;-81
2024/02/14 05:10:26;;;;;;;5.47;1.50;;;;;;;-145.69;58.08;52325.56;5112500;28;20647;-81
2024/02/14 05:12:52;;;;;;;1.53;1.00;;;;;;;-145.69;57.91;52291.91;5112229;28;20193;-81
2024/02/14 05:15:20;;;;;;;2.87;1.27;;;;;;;-145.69;57.68;52329.53;5111661;28;20556;-82
2024/02/14 05:17:49;;;;;;;1.40;1.17;;;;;;;-145.69;57.43;52333.47;5112637;27;20543;-81
2024/02/14 05:20:16;;;;;;;1.43;0.87;;;;;;;-145.69;57.38;52335.47;5112218;28;20201;-81
2024/02/14 05:22:43;;;;;;;5.30;1.33;;;;;;;-145.69;57.71;52329.53;5112311;28;20190;-81
2024/02/14 05:25:10;;;;;;;2.13;1.20;;;;;;;-145.69;57.60;52337.44;5112163;28;20198;-81
2024/02/14 05:27:37;;;;;;;3.63;1.23;;;;;;;-145.69;57.70;52319.63;5116074;28;20730;-81
2024/02/14 05:30:05;;;;;;;1.93;0.93;;;;;;;-145.69;57.76;52305.75;5115577;28;20686;-81
2024/02/14 05:32:33;;;;;;;1.83;1.07;;;;;;;-145.69;57.45;52317.66;5115571;28;20197;-81
2024/02/14 05:35:00;;;;;;;1.60;1.00;;;;;;;-145.69;57.15;52337.44;5115924;28;20540;-81
2024/02/14 05:37:27;;;;;;;3.33;1.40;;;;;;;-145.69;56.86;52315.66;5115890;28;20198;-81
2024/02/14 05:39:54;;;;;;;1.53;0.90;;;;;;;-145.69;57.32;52305.75;5115985;28;20288;-81
2024/02/14 05:42:21;;;;;;;2.30;1.10;;;;;;;-145.69;57.43;52309.72;5115813;28;20201;-81
2024/02/14 05:44:47;;;;;;;1.37;1.03;;;;;;;-145.69;57.70;52349.31;5115466;28;20197;-82
2024/02/14 05:47:14;;;;;;;3.83;1.20;;;;;;;-145.69;57.25;52325.56;5115340;28;20846;-81
2024/02/14 05:49:42;;;;;;;1.30;1.10;;;;;;;-145.69;57.18;52345.38;5115450;28;20240;-81
2024/02/14 05:52:09;;;;;;;2.73;1.20;;;;;;;-145.69;56.96;52317.66;5115724;28;20660;-81
2024/02/14 05:54:35;;;;;;;6.37;1.30;;;;;;;-145.69;57.25;52303.78;5115606;28;20197;-81
2024/02/14 05:57:02;;;;;;;1.50;1.00;;;;;;;-145.69;56.90;52295.84;5115500;28;20200;-81
2024/02/14 05:59:30;;;;;;;1.83;1.10;;;;;;;-145.69;57.40;52287.94;5115490;28;20201;-81
2024/02/14 06:01:56;;;;;;;3.40;1.07;;;;;;;-145.69;57.41;52317.66;5115028;28;20280;-81
2024/02/14 06:04:23;;;;;;;5.13;1.10;;;;;;;-145.69;57.34;52274.06;5115003;27;20517;-81
2024/02/14 06:06:51;;;;;;;1.33;1.00;;;;;;;-145.69;57.50;52341.41;5114726;28;20197;-81
2024/02/14 06:09:18;;;;;;;3.07;1.27;;;;;;;-145.69;57.64;52264.16;5115090;28;20695;-81
2024/02/14 06:11:44;;;;;;;4.43;1.23;;;;;;;-145.69;57.92;52301.81;5115253;28;20208;-82
2024/02/14 06:14:11;;;;;;;3.23;1.27;;;;;;;-145.69;58.26;52282.00;5115153;28;20198;-82
2024/02/14 06:16:37;;;;;;;1.57;0.97;;;;;;;-145.69;57.65;52309.72;5115349;27;20251;-82
2024/02/14 06:19:05;;;;;;;1.30;1.20;;;;;;;-145.69;57.48;52313.69;5115038;28;20658;-81
2024/02/14 06:21:33;;;;;;;1.40;0.90;;;;;;;-145.69;57.31;52347.34;5114920;27;20590;-81
2024/02/14 06:24:01;;;;;;;2.93;0.87;;;;;;;-145.69;57.28;52293.88;5114404;28;20239;-82
2024/02/14 06:26:27;;;;;;;2.37;1.27;;;;;;;-145.69;57.36;52282.00;5114941;27;20567;-81
2024/02/14 06:28:54;;;;;;;2.93;1.20;;;;;;;-145.69;57.29;52297.84;5114736;28;20221;-83
2024/02/14 06:31:21;;;;;;;2.90;1.00;;;;;;;-145.69;57.54;52287.94;5114870;28;20193;-81
2024/02/14 06:33:47;;;;;;;2.50;1.20;;;;;;;-145.69;58.16;52309.72;5114531;28;20193;-82
2024/02/14 06:36:14;;;;;;;1.37;0.87;;;;;;;-145.69;57.60;52305.75;5114132;28;20197;-83
2024/02/14 06:38:40;;;;;;;2.37;1.10;;;;;;;-145.69;57.93;52289.91;5114896;28;20648;-82
2024/02/14 06:41:08;;;;;;;1.40;1.10;;;;;;;-145.69;57.54;52262.19;5114373;27;20204;-81
2024/02/14 06:43:36;;;;;;;1.10;1.00;;;;;;;-145.69;57.13;52268.13;5114577;28;20212;-81
2024/02/14 06:46:02;;;;;;;3.53;0.90;;;;;;;-145.69;56.45;52331.50;5114650;28;20201;-83
2024/02/14 06:48:29;;;;;;;1.27;0.90;;;;;;;-145.69;55.57;52309.72;5114125;28;20600;-82
2024/02/14 06:50:55;;;;;;;8.40;1.00;;;;;;;-145.69;55.75;52317.66;5114271;28;20664;-81
2024/02/14 06:53:21;;;;;;;4.83;1.10;;;;;;;-145.69;55.80;52291.91;5114576;28;20197;-82
2024/02/14 06:55:48;;;;;;;2.07;1.00;;;;;;;-145.69;56.07;52289.91;5114046;28;20254;-82
2024/02/14 06:58:16;;;;;;;2.60;1.53;;;;;;;-145.69;55.77;52278.03;5114067;28;20208;-80
2024/02/14 07:00:44;;;;;;;2.10;1.20;;;;;;;-145.69;55.09;52285.97;5113951;28;20193;-82
2024/02/14 07:03:10;;;;;;;5.07;0.87;;;;;;;-145.69;54.74;52293.88;5114317;28;20582;-82
2024/02/14 07:05:37;;;;;;;6.20;2.17;;;;;;;-145.69;55.00;52285.97;5113831;28;20197;-81
2024/02/14 07:08:04;;;;;;;3.73;1.20;;;;;;;-145.69;54.38;52293.88;5114294;28;20201;-82
2024/02/14 07:10:30;;;;;;;3.17;1.30;;;;;;;-145.69;54.35;52258.22;5113743;28;20257;-82
2024/02/14 07:12:57;;;;;;;3.27;1.43;;;;;;;-145.69;53.98;52295.84;5113904;27;20202;-83
2024/02/14 07:15:28;;;;;;;3.10;1.30;;;;;;;-145.69;53.34;52287.94;5114205;27;20560;-82
2024/02/14 07:17:54;;;;;;;4.03;1.10;;;;;;;-145.69;52.93;52270.13;5113561;28;20204;-81
2024/02/14 07:20:21;;;;;;;1.30;1.10;;;;;;;-145.69;53.25;52337.44;5113859;28;20197;-81
2024/02/14 07:22:52;;;;;;;1.00;0.90;;;;;;;-145.69;52.78;52283.97;5113759;28;20208;-81
2024/02/14 07:25:19;;;;;;;2.50;1.10;;;;;;;-145.69;52.31;52331.50;5113497;27;20189;-81
2024/02/14 07:27:48;;;;;;;1.17;0.87;;;;;;;-145.69;52.87;52258.22;5113108;28;20204;-81
2024/02/14 07:30:15;;;;;;;1.57;0.93;;;;;;;-145.69;52.31;52278.03;5113154;28;20213;-81
2024/02/14 07:32:43;;;;;;;1.97;0.80;;;;;;;-145.69;52.18;52248.34;5113827;28;20200;-81
2024/02/14 07:35:10;;;;;;;1.50;0.93;;;;;;;-145.69;52.61;52266.16;5112855;28;20202;-81
2024/02/14 07:37:37;;;;;;;2.57;0.90;;;;;;;-145.69;52.84;52238.44;5113085;28;20197;-81
2024/02/14 07:40:05;;;;;;;1.97;1.00;;;;;;;-145.69;52.92;52262.19;5113968;28;20201;-81
2024/02/14 07:42:31;;;;;;;3.60;0.80;;;;;;;-145.69;52.46;52246.34;5113609;28;20203;-83
2024/02/14 07:44:58;;;;;;;1.43;1.00;;;;;;;-145.69;52.84;52274.06;5113507;28;20201;-83
2024/02/14 07:47:24;;;;;;;3.20;1.00;;;;;;;-145.69;52.61;52266.16;5113293;28;20666;-82
2024/02/14 07:49:53;;;;;;;2.87;1.00;;;;;;;-145.69;52.84;52285.97;5112144;28;20714;-82
2024/02/14 07:52:19;;;;;;;2.27;1.00;;;;;;;-145.69;52.98;52274.06;5113085;28;20587;-82
2024/02/14 07:54:46;;;;;;;1.67;1.00;;;;;;;-145.69;53.38;52252.28;5113625;28;20209;-82
2024/02/14 07:57:12;;;;;;;7.20;2.90;;;;;;;-145.69;52.86;52238.44;5112319;28;20201;-82
2024/02/14 07:59:39;;;;;;;10.13;3.53;;;;;;;-145.69;52.65;52250.31;5113714;28;20193;-84
2024/02/14 08:02:05;;;;;;;7.23;2.40;;;;;;;-145.69;52.09;52232.50;5113551;27;20193;-84
2024/02/14 08:04:32;;;;;;;3.67;1.53;;;;;;;-145.69;52.00;52266.16;5113796;28;20205;-85
2024/02/14 08:06:59;;;;;;;3.80;1.77;;;;;;;-145.69;51.09;52224.56;5113182;28;20209;-84
2024/02/14 08:09:26;;;;;;;2.00;1.53;;;;;;;-145.69;51.33;52250.31;5113519;28;20588;-84
2024/02/14 08:11:53;;;;;;;2.78;1.30;;;;;;;-145.69;51.25;52285.97;5113114;28;20667;-83
2024/02/14 08:14:20;;;;;;;2.60;1.77;;;;;;;-145.69;50.50;52254.28;5113443;28;20228;-84
2024/02/14 08:16:46;;;;;;;2.30;1.20;;;;;;;-145.69;50.26;52252.28;5113217;28;20205;-84
2024/02/14 08:19:13;;;;;;;1.63;0.90;;;;;;;-145.69;50.44;52220.59;5113175;28;20197;-84
2024/02/14 08:21:40;;;;;;;1.30;1.00;;;;;;;-145.69;49.94;52268.13;5112963;28;20212;-84
2024/02/14 08:24:08;;;;;;;1.40;1.00;;;;;;;-145.69;49.46;52250.31;5113007;28;20683;-84
2024/02/14 08:26:35;;;;;;;2.63;1.07;;;;;;;-145.69;48.72;52218.63;5113262;28;20270;-84
2024/02/14 08:29:01;;;;;;;2.67;1.20;;;;;;;-145.69;48.29;52242.38;5113130;28;20198;-84
2024/02/14 08:31:28;;;;;;;1.00;0.77;;;;;;;-145.69;48.34;52218.63;5113296;28;20297;-84
2024/02/14 08:33:54;;;;;;;2.15;1.00;;;;;;;-145.69;48.44;52224.56;5113127;28;20209;-84
2024/02/14 08:36:21;;;;;;;1.52;0.90;;;;;;;-145.69;47.81;52238.44;5113001;28;20660;-84
2024/02/14 08:38:47;;;;;;;3.45;1.05;;;;;;;-145.69;47.47;52192.88;5113520;28;20648;-84
2024/02/14 08:41:16;;;;;;;1.58;1.40;;;;;;;-145.69;47.05;52208.72;5112768;28;20644;-84
2024/02/14 08:43:42;;;;;;;1.63;1.10;;;;;;;-145.69;46.26;52214.66;5113106;28;20205;-84
2024/02/14 08:46:10;;;;;;;2.38;0.90;;;;;;;-145.69;46.00;52194.88;5113038;28;20664;-85
2024/02/14 08:48:41;;;;;;;3.88;1.27;;;;;;;-145.69;45.36;52236.44;5112732;27;20233;-84
2024/02/14 08:51:09;;;;;;;1.65;0.93;;;;;;;-145.69;45.19;52226.53;5112457;28;20233;-84
2024/02/14 08:53:35;;;;;;;3.50;1.40;;;;;;;-145.69;45.83;52206.75;5112607;27;20208;-83
2024/02/14 08:56:02;;;;;;;3.45;1.17;;;;;;;-145.69;45.77;52206.75;5112819;27;20198;-84
2024/02/14 08:58:30;;;;;;;1.35;1.10;;;;;;;-145.69;45.93;52224.56;5112622;28;20216;-84
2024/02/14 09:00:56;;;;;;;1.48;0.98;;;;;;;-145.69;46.34;52224.56;5115022;28;20198;-83
2024/02/14 09:03:23;;;;;;;0.68;0.55;;;;;;;-145.69;46.43;52202.78;5116979;28;20206;-83
2024/02/14 09:05:50;;;;;;;2.70;0.80;;;;;;;-145.69;47.30;52190.91;5116944;27;20546;-83
2024/02/14 09:08:16;;;;;;;1.92;0.95;;;;;;;-145.69;46.99;52202.78;5116715;27;20281;-82
2024/02/14 09:10:43;;;;;;;1.95;0.68;;;;;;;-145.69;46.45;52206.75;5116443;27;20230;-83
2024/02/14 09:13:09;;;;;;;2.22;1.00;;;;;;;-145.69;46.58;52202.78;5116353;27;20272;-85
2024/02/14 09:15:37;;;;;;;5.13;0.80;;;;;;;-145.69;46.08;52206.75;5116245;28;20201;-84
2024/02/14 09:18:04;;;;;;;3.22;0.95;;;;;;;-145.69;45.70;52210.72;5116555;28;20205;-84
2024/02/14 09:20:31;;;;;;;0.82;0.82;;;;;;;-145.69;45.12;52194.88;5116400;28;20205;-82
2024/02/14 09:22:58;;;;;;;2.50;0.90;;;;;;;-145.69;45.05;52222.59;5116128;28;20213;-84
2024/02/14 09:25:25;;;;;;;0.90;0.88;;;;;;;-145.69;44.97;52218.63;5116314;28;20247;-83
2024/02/14 09:27:52;;;;;;;1.52;0.80;;;;;;;-145.69;44.81;52194.88;5115855;28;20201;-83
2024/02/14 09:30:19;;;;;;;2.10;0.82;;;;;;;-145.69;44.53;52232.50;5114731;28;20978;-83
2024/02/14 09:32:47;;;;;;;2.20;1.02;;;;;;;-145.69;44.38;52182.97;5116016;28;20594;-83
2024/02/14 09:35:14;;;;;;;1.02;0.85;;;;;;;-145.69;44.16;52188.91;5115769;28;20185;-82
2024/02/14 09:37:41;;;;;;;2.17;1.00;;;;;;;-145.69;43.46;52167.13;5115952;28;20197;-82
2024/02/14 09:40:12;;;;;;;1.05;0.80;;;;;;;-145.69;43.81;52194.88;5115763;28;20205;-82
2024/02/14 09:42:44;;;;;;;1.20;0.93;;;;;;;-145.69;44.21;52153.28;5115550;28;20206;-82
2024/02/14 09:45:12;;;;;;;1.33;0.70;;;;;;;-145.69;44.60;52179.03;5115111;28;20201;-83
2024/02/14 09:47:40;;;;;;;1.38;0.70;;;;;;;-145.69;44.50;52202.78;5115117;28;20190;-82
2024/02/14 09:50:10;;;;;;;1.20;0.70;;;;;;;-145.69;44.32;52202.78;5115491;28;20240;-83
2024/02/14 09:52:39;;;;;;;1.65;0.80;;;;;;;-145.69;44.50;52171.09;5115685;28;20284;-84
2024/02/14 09:55:06;;;;;;;2.13;0.80;;;;;;;-145.69;44.72;52182.97;5115433;28;20679;-82
2024/02/14 09:57:34;;;;;;;1.38;0.70;;;;;;;-145.69;44.34;52198.81;5115821;28;20197;-82
2024/02/14 10:00:04;;;;;;;0.80;0.80;;;;;;;-145.69;44.49;52196.84;5115366;28;20197;-82
2024/02/14 10:02:31;;;;;;;2.60;0.60;;;;;;;-145.69;44.81;52184.97;5112241;27;20664;-81
2024/02/14 10:04:57;;;;;;;1.38;0.60;;;;;;;-145.69;44.38;52175.06;5114478;28;20202;-80
2024/02/14 10:07:25;;;;;;;2.15;0.85;;;;;;;-145.69;44.45;52179.03;5114226;28;20656;-84
2024/02/14 10:09:52;;;;;;;1.77;0.65;;;;;;;-145.69;44.76;52214.66;5114643;28;20221;-82
2024/02/14 10:12:18;;;;;;;3.28;1.00;;;;;;;-145.69;46.15;52184.97;5114301;28;20541;-83
2024/02/14 10:14:45;;;;;;;1.05;0.65;;;;;;;-145.69;45.70;52194.88;5114772;27;20194;-83
2024/02/14 10:17:18;;;;;;;2.85;0.93;;;;;;;-145.69;45.55;52186.94;5114675;28;20652;-83
2024/02/14 10:19:55;;;;;;;1.05;0.80;;;;;;;-145.69;45.47;52182.97;5114680;28;20205;-84
2024/02/14 10:22:21;;;;;;;4.40;0.70;;;;;;;-145.69;45.17;52192.88;5114870;28;20195;-83
2024/02/14 10:24:49;;;;;;;1.50;0.60;;;;;;;-145.69;45.93;52214.66;5114591;28;20212;-83
2024/02/14 10:27:19;;;;;;;2.25;0.73;;;;;;;-145.69;46.16;52184.97;5114945;28;20558;-84
2024/02/14 10:29:45;;;;;;;1.50;0.80;;;;;;;-145.69;45.70;52198.81;5113823;28;20194;-84
2024/02/14 10:32:15;;;;;;;6.22;2.35;;;;;;;-145.69;45.27;52167.13;5114429;28;20686;-83
2024/02/14 10:34:45;;;;;;;2.55;1.63;;;;;;;-145.69;44.81;52173.09;5113397;28;20197;-82
2024/02/14 10:37:16;;;;;;;2.53;1.30;;;;;;;-145.69;45.36;52198.81;5106506;28;20759;-81
2024/02/14 10:39:44;;;;;;;1.45;1.15;;;;;;;-145.69;46.05;52186.94;5113538;28;20590;-81
2024/02/14 10:42:13;;;;;;;1.02;0.75;;;;;;;-145.69;45.45;52184.97;5114641;28;20671;-82
2024/02/14 10:44:39;;;;;;;1.00;0.90;;;;;;;-145.69;46.08;52175.06;5114369;28;20194;-82
2024/02/14 10:47:10;;;;;;;1.88;0.68;;;;;;;-145.69;45.80;52194.88;5114881;28;20644;-83
2024/02/14 10:49:39;;;;;;;2.65;0.93;;;;;;;-145.69;45.58;52155.25;5114250;28;20232;-82
2024/02/14 10:52:07;;;;;;;2.50;0.75;;;;;;;-145.69;45.40;52157.25;5114692;28;20227;-82
2024/02/14 10:54:36;;;;;;;1.35;0.80;;;;;;;-145.69;45.42;52190.91;5114118;28;20201;-80
2024/02/14 10:57:07;;;;;;;1.40;0.63;;;;;;;-145.69;46.03;52167.13;5113715;28;20441;-80
2024/02/14 10:59:36;;;;;;;0.95;0.70;;;;;;;-145.69;45.82;52173.09;5114077;28;20197;-82
2024/02/14 11:02:03;;;;;;;0.73;0.70;;;;;;;-145.69;46.13;52167.13;5113873;28;20201;-83
2024/02/14 11:04:30;;;;;;;0.90;0.80;;;;;;;-145.69;45.83;52155.25;5114112;28;20201;-83
2024/02/14 11:07:02;;;;;;;1.90;0.73;;;;;;;-145.69;46.12;52177.03;5113637;28;20254;-81
2024/02/14 11:09:33;;;;;;;2.50;0.90;;;;;;;-145.69;46.44;52188.91;5114181;28;20209;-81
2024/02/14 11:12:02;;;;;;;0.68;0.60;;;;;;;-145.69;46.38;52182.97;5113393;28;20229;-81
2024/02/14 11:14:32;;;;;;;1.20;0.70;;;;;;;-145.69;46.04;52157.25;5113736;28;20201;-81
2024/02/14 11:17:00;;;;;;;2.63;0.70;;;;;;;-145.69;46.26;52143.38;5113816;28;20198;-80